Aviation Digital Data Service (ADDS)

Output produced by METARs form (1818 UTC 18 April 2019)
found at http://www.aviationweather.gov/metar/data/
 
METAR text: RJBT 180900Z 04004KT 010V080 9999 FEW060 18/04 Q1010
Conditions at: RJBT (TAJIMA , JP) observed 0900 UTC 18 April 2019
Temperature: 18.0°C (64°F)
Dewpoint: 4.0°C (39°F) [RH = 39%]
Pressure (altimeter): 29.82 inches Hg (1010.0 mb)
Winds: from the NE (40 degrees) at 5 MPH (4 knots; 2.1 m/s)
Visibility: 6 or more miles (10+ km)
Ceiling: at least 12,000 feet AGL
Clouds: few clouds at 6000 feet AGL
Weather: no significant weather observed at this time

METAR text: RJBT 180800Z 01008KT 330V030 9999 FEW060 BKN/// 19/04 Q1010
Conditions at: RJBT (TAJIMA , JP) observed 0800 UTC 18 April 2019
Temperature: 19.0°C (66°F)
Dewpoint: 4.0°C (39°F) [RH = 37%]
Pressure (altimeter): 29.82 inches Hg (1010.0 mb)
Winds: from the N (10 degrees) at 9 MPH (8 knots; 4.1 m/s)
Visibility: 6 or more miles (10+ km)
Ceiling: at least 12,000 feet AGL
Clouds: few clouds at 6000 feet AGL
Weather: no significant weather observed at this time

METAR text: RJBT 180700Z 01009KT 340V040 9999 FEW060 BKN/// 21/04 Q1010
Conditions at: RJBT (TAJIMA , JP) observed 0700 UTC 18 April 2019
Temperature: 21.0°C (70°F)
Dewpoint: 4.0°C (39°F) [RH = 33%]
Pressure (altimeter): 29.82 inches Hg (1010.0 mb)
Winds: from the N (10 degrees) at 10 MPH (9 knots; 4.6 m/s)
Visibility: 6 or more miles (10+ km)
Ceiling: at least 12,000 feet AGL
Clouds: few clouds at 6000 feet AGL
Weather: no significant weather observed at this time

METAR text: RJBT 180600Z 01007KT 340V040 9999 FEW045 BKN/// 21/04 Q1010
Conditions at: RJBT (TAJIMA , JP) observed 0600 UTC 18 April 2019
Temperature: 21.0°C (70°F)
Dewpoint: 4.0°C (39°F) [RH = 33%]
Pressure (altimeter): 29.82 inches Hg (1010.0 mb)
Winds: from the N (10 degrees) at 8 MPH (7 knots; 3.6 m/s)
Visibility: 6 or more miles (10+ km)
Ceiling: at least 12,000 feet AGL
Clouds: few clouds at 4500 feet AGL
Weather: no significant weather observed at this time

METAR text: RJBT 180500Z 01008KT 340V050 9999 FEW045 BKN/// 21/03 Q1010
Conditions at: RJBT (TAJIMA , JP) observed 0500 UTC 18 April 2019
Temperature: 21.0°C (70°F)
Dewpoint: 3.0°C (37°F) [RH = 30%]
Pressure (altimeter): 29.82 inches Hg (1010.0 mb)
Winds: from the N (10 degrees) at 9 MPH (8 knots; 4.1 m/s)
Visibility: 6 or more miles (10+ km)
Ceiling: at least 12,000 feet AGL
Clouds: few clouds at 4500 feet AGL
Weather: no significant weather observed at this time

METAR text: RJBT 180400Z 01005KT 320V070 9999 FEW040 BKN/// 22/03 Q1010
Conditions at: RJBT (TAJIMA , JP) observed 0400 UTC 18 April 2019
Temperature: 22.0°C (72°F)
Dewpoint: 3.0°C (37°F) [RH = 29%]
Pressure (altimeter): 29.82 inches Hg (1010.0 mb)
Winds: from the N (10 degrees) at 6 MPH (5 knots; 2.6 m/s)
Visibility: 6 or more miles (10+ km)
Ceiling: at least 12,000 feet AGL
Clouds: few clouds at 4000 feet AGL
Weather: no significant weather observed at this time

METAR text: RJBT 180300Z VRB04KT 9999 FEW040 BKN/// 22/M00 Q1011
Conditions at: RJBT (TAJIMA , JP) observed 0300 UTC 18 April 2019
Temperature: 22.0°C (72°F)
Dewpoint: 0.0°C (32°F) [RH = 23%]
Pressure (altimeter): 29.85 inches Hg (1011.0 mb)
Winds: variable direction winds at 5 MPH (4 knots; 2.1 m/s)
Visibility: 6 or more miles (10+ km)
Ceiling: at least 12,000 feet AGL
Clouds: few clouds at 4000 feet AGL
Weather: no significant weather observed at this time

METAR text: RJBT 180200Z 05004KT 360V130 9999 FEW040 BKN/// 22/01 Q1012
Conditions at: RJBT (TAJIMA , JP) observed 0200 UTC 18 April 2019
Temperature: 22.0°C (72°F)
Dewpoint: 1.0°C (34°F) [RH = 25%]
Pressure (altimeter): 29.88 inches Hg (1012.0 mb)
Winds: from the NE (50 degrees) at 5 MPH (4 knots; 2.1 m/s)
Visibility: 6 or more miles (10+ km)
Ceiling: at least 12,000 feet AGL
Clouds: few clouds at 4000 feet AGL
Weather: no significant weather observed at this time

METAR text: RJBT 180100Z VRB02KT 9999 FEW040 BKN/// 20/04 Q1012
Conditions at: RJBT (TAJIMA , JP) observed 0100 UTC 18 April 2019
Temperature: 20.0°C (68°F)
Dewpoint: 4.0°C (39°F) [RH = 35%]
Pressure (altimeter): 29.88 inches Hg (1012.0 mb)
Winds: variable direction winds at 2 MPH (2 knots; 1.0 m/s)
Visibility: 6 or more miles (10+ km)
Ceiling: at least 12,000 feet AGL
Clouds: few clouds at 4000 feet AGL
Weather: no significant weather observed at this time

METAR text: RJBT 180000Z 18005KT 150V250 CAVOK 17/05 Q1012
Conditions at: RJBT (TAJIMA , JP) observed 0000 UTC 18 April 2019
Temperature: 17.0°C (63°F)
Dewpoint: 5.0°C (41°F) [RH = 45%]
Pressure (altimeter): 29.88 inches Hg (1012.0 mb)
Winds: from the S (180 degrees) at 6 MPH (5 knots; 2.6 m/s)
Visibility: 6 or more miles (10+ km)
Ceiling: ceiling and visibility are OK
Clouds: unknown
Weather: no significant weather observed at this time

METAR text: RJBT 172330Z 21005KT CAVOK 15/15 Q1012
Conditions at: RJBT (TAJIMA , JP) observed 2330 UTC 17 April 2019
Temperature: 15.0°C (59°F)
Dewpoint: 15.0°C (59°F) [RH = 100%]
Pressure (altimeter): 29.88 inches Hg (1012.0 mb)
Winds: from the SSW (210 degrees) at 6 MPH (5 knots; 2.6 m/s)
Visibility: 6 or more miles (10+ km)
Ceiling: ceiling and visibility are OK
Clouds: unknown
Weather: no significant weather observed at this time

METAR text: RJBT 170900Z 36004KT 9999 FEW035 BKN/// 18/M04 Q1010
Conditions at: RJBT (TAJIMA , JP) observed 0900 UTC 17 April 2019
Temperature: 18.0°C (64°F)
Dewpoint: -4.0°C (25°F) [RH = 22%]
Pressure (altimeter): 29.82 inches Hg (1010.0 mb)
Winds: from the N (360 degrees) at 5 MPH (4 knots; 2.1 m/s)
Visibility: 6 or more miles (10+ km)
Ceiling: at least 12,000 feet AGL
Clouds: few clouds at 3500 feet AGL
Weather: no significant weather observed at this time

METAR text: RJBT 170800Z 01006KT 9999 FEW035 SCT140 BKN/// 19/M05 Q1010
Conditions at: RJBT (TAJIMA , JP) observed 0800 UTC 17 April 2019
Temperature: 19.0°C (66°F)
Dewpoint: -5.0°C (23°F) [RH = 19%]
Pressure (altimeter): 29.82 inches Hg (1010.0 mb)
Winds: from the N (10 degrees) at 7 MPH (6 knots; 3.1 m/s)
Visibility: 6 or more miles (10+ km)
Ceiling: at least 12,000 feet AGL
Clouds: few clouds at 3500 feet AGL
scattered clouds at 14000 feet AGL
Weather: no significant weather observed at this time

METAR text: RJBT 170700Z 01007KT 330V040 9999 FEW035 BKN140 BKN/// 20/M03 Q1009
Conditions at: RJBT (TAJIMA , JP) observed 0700 UTC 17 April 2019
Temperature: 20.0°C (68°F)
Dewpoint: -3.0°C (27°F) [RH = 21%]
Pressure (altimeter): 29.79 inches Hg (1009.0 mb)
Winds: from the N (10 degrees) at 8 MPH (7 knots; 3.6 m/s)
Visibility: 6 or more miles (10+ km)
Ceiling: 14000 feet AGL
Clouds: few clouds at 3500 feet AGL
broken clouds at 14000 feet AGL
Weather: no significant weather observed at this time